Grande Europa — ICGE — position and weather

sailwx.info

Track history (hours):
 
Tides and Currents Weather Stations Pressure Air Temp Water Temp Dewpoint Dewpoint Depression Visibility Wind Speed Wind Dir Waves Ship Positions

Grande Europa

Last reported at 2017-Aug-19 16:30 UTC. Time now 2017-Aug-19 16:45 UTC.
Position N 36°26' W 008°44'.

Length 183 m; draft 9.2 m.

Type: Cargo ship. MMSI: 247206000.

Date/timePositionNaut miles runAvg speedWind from/ knotsBaromVisibWave heightAir tempDewpointWater temp
2017-Aug-19 16:30N 36°26' W 008°44'917.6
2017-Aug-19 16:00N 36°28' W 008°54'917.8
2017-Aug-19 15:30N 36°31' W 009°05'918.0
2017-Aug-19 15:00N 36°33' W 009°16'1818.0
2017-Aug-19 14:00N 36°47' W 009°31'918.2
2017-Aug-19 13:30N 36°55' W 009°34'918.1
2017-Aug-19 13:01N 37°04' W 009°37'917.8
2017-Aug-19 12:31N 37°13' W 009°40'917.8
2017-Aug-19 12:00N 37°21' W 009°43'917.6
2017-Aug-19 11:30N 37°30' W 009°46'917.6
2017-Aug-19 11:00N 37°38' W 009°48'917.7
2017-Aug-19 10:31N 37°47' W 009°51'918.1
2017-Aug-19 10:00N 37°56' W 009°53'917.7
2017-Aug-19 09:30N 38°04' W 009°55'917.6
2017-Aug-19 09:00N 38°13' W 009°58'917.4
2017-Aug-19 08:30N 38°22' W 010°00'917.6
2017-Aug-19 08:00N 38°30' W 010°03'917.9
2017-Aug-19 07:30N 38°39' W 010°05'917.6
2017-Aug-19 07:00N 38°48' W 010°06'917.8
2017-Aug-19 06:31N 38°57' W 010°07'918.1
2017-Aug-19 06:00N 39°06' W 010°07'917.7
2017-Aug-19 05:30N 39°14' W 010°08'917.9
2017-Aug-19 05:01N 39°23' W 010°08'917.7
2017-Aug-19 04:31N 39°32' W 010°08'917.9
2017-Aug-19 04:01N 39°41' W 010°09'917.7
2017-Aug-19 03:31N 39°50' W 010°09'1817.9
2017-Aug-19 02:30N 40°08' W 010°08'54916.9
2017-Aug-17 18:00N 48°46' W 005°54'1117.7
2017-Aug-17 17:24N 48°54' W 005°44'717.7
2017-Aug-17 17:00N 48°58' W 005°35'917.7
2017-Aug-17 16:30N 49°03' W 005°24'917.4
2017-Aug-17 15:57N 49°08' W 005°12'2216.7
2017-Aug-17 14:38N 49°20' W 004°43'216.1
2017-Aug-17 14:30N 49°21' W 004°41'816.1
2017-Aug-17 14:00N 49°25' W 004°30'815.8
2017-Aug-17 13:28N 49°29' W 004°18'1115.8
2017-Aug-17 12:47N 49°35' W 004°04'515.8
2017-Aug-17 12:29N 49°37' W 003°58'816.1
2017-Aug-17 12:00N 49°41' W 003°47'816.3
2017-Aug-17 11:30N 49°45' W 003°36'816.8
2017-Aug-17 11:00N 49°49' W 003°25'917.2
2017-Aug-17 10:30N 49°53' W 003°13'917.5
2017-Aug-17 10:00N 49°57' W 003°01'917.9
2017-Aug-17 09:30N 50°01' W 002°48'2517.9
2017-Aug-17 08:06N 50°10' W 002°12'217.5
2017-Aug-17 08:00N 50°11' W 002°09'917.2
2017-Aug-17 07:30N 50°15' W 001°57'817.2
2017-Aug-17 07:00N 50°19' W 001°46'816.8
2017-Aug-17 06:31N 50°23' W 001°34'816.2
2017-Aug-17 06:00N 50°26' W 001°23'815.7
2017-Aug-17 05:30N 50°30' W 001°12'815.2
2017-Aug-17 05:00N 50°34' W 001°01'714.4
2017-Aug-17 04:31N 50°41' W 000°58'510.2
2017-Aug-17 04:01N 50°44' W 001°04'815.9
2017-Aug-17 03:31N 50°46' W 001°16'5 9.1
2017-Aug-17 03:00N 50°50' W 001°20'3 5.5
2017-Aug-17 02:30N 50°52' W 001°23'3 5.5
2017-Aug-17 01:58N 50°54' W 001°26'1 1.5
2017-Aug-17 01:28N 50°54' W 001°25'0 0.0
2017-Aug-17 00:55N 50°54' W 001°25'0 0.0
2017-Aug-17 00:25N 50°54' W 001°25'0 0.0
2017-Aug-16 23:55N 50°54' W 001°25'0 0.0
2017-Aug-16 23:28N 50°54' W 001°25'0 0.0
2017-Aug-16 22:55N 50°54' W 001°25'0 0.0
2017-Aug-16 22:25N 50°54' W 001°25'0 0.0
2017-Aug-16 21:58N 50°54' W 001°25'0 0.0
2017-Aug-16 21:28N 50°54' W 001°25'0 0.2
2017-Aug-16 20:58N 50°54' W 001°25'0 0.2
2017-Aug-16 20:25N 50°54' W 001°25'0 0.0
2017-Aug-16 19:58N 50°54' W 001°25'0 0.0
2017-Aug-16 19:28N 50°54' W 001°25'0 0.0
2017-Aug-16 18:58N 50°54' W 001°25'0 0.1
2017-Aug-16 18:28N 50°54' W 001°25'0 0.1
2017-Aug-16 17:55N 50°54' W 001°25'0 0.0
2017-Aug-16 17:28N 50°54' W 001°25'0 0.0
2017-Aug-16 16:58N 50°54' W 001°25'0 0.0
2017-Aug-16 16:28N 50°54' W 001°25'0 0.0
2017-Aug-16 16:00N 50°54' W 001°25'1 2.6
2017-Aug-16 15:31N 50°53' W 001°24'4 8.2
2017-Aug-16 15:00N 50°50' W 001°19'4 7.8
2017-Aug-16 14:31N 50°47' W 001°17'714.2
2017-Aug-16 14:00N 50°45' W 001°06'714.5
2017-Aug-16 13:31N 50°41' W 000°57'611.5
2017-Aug-16 13:00N 50°37' W 000°50'612.0
2017-Aug-16 12:30N 50°35' W 000°41'611.7
2017-Aug-16 12:00N 50°34' W 000°32'713.7
2017-Aug-16 11:30N 50°33' W 000°21'714.1
2017-Aug-16 11:00N 50°32' W 000°10'816.0
2017-Aug-16 10:31N 50°32' E 000°02'816.1
2017-Aug-16 10:00N 50°34' E 000°14'815.9
2017-Aug-16 09:31N 50°37' E 000°26'917.0
2017-Aug-16 09:00N 50°40' E 000°39'917.3
2017-Aug-16 08:31N 50°45' E 000°50'917.0
2017-Aug-16 08:00N 50°50' E 001°01'816.6
2017-Aug-16 07:31N 50°55' E 001°11'815.8
2017-Aug-16 07:00N 51°00' E 001°21'815.2
2017-Aug-16 06:31N 51°05' E 001°30'714.8
2017-Aug-16 06:01N 51°10' E 001°39'714.9
2017-Aug-16 05:31N 51°15' E 001°47'815.5
2017-Aug-16 05:00N 51°21' E 001°55'713.1
2017-Aug-16 04:31N 51°24' E 002°04'815.8
2017-Aug-16 04:01N 51°21' E 002°16'815.9
2017-Aug-16 03:31N 51°23' E 002°28'816.3
2017-Aug-16 03:01N 51°23' E 002°41'713.3
2017-Aug-16 02:30N 51°22' E 002°52'816.0
2017-Aug-16 02:00N 51°24' E 003°04'816.0
2017-Aug-16 01:30N 51°25' E 003°17'816.5
2017-Aug-16 01:00N 51°25' E 003°30'5 9.9
2017-Aug-16 00:30N 51°26' E 003°38'714.9
2017-Aug-16 00:01N 51°21' E 003°47'815.1
2017-Aug-15 23:31N 51°25' E 003°58'611.7
2017-Aug-15 23:01N 51°22' E 004°06'611.4
2017-Aug-15 22:30N 51°21' E 004°15'5 9.5
2017-Aug-15 22:00N 51°17' E 004°19'2 4.2
2017-Aug-15 21:30N 51°16' E 004°17'0 0.2
2017-Aug-15 21:01N 51°16' E 004°17'2 4.6
2017-Aug-15 20:30N 51°16' E 004°13'0 0.6
2017-Aug-15 19:59N 51°16' E 004°13'0 0.0
2017-Aug-15 19:29N 51°16' E 004°13'0 0.0
2017-Aug-15 18:59N 51°16' E 004°13'0 0.0
2017-Aug-15 18:29N 51°16' E 004°13'0 0.0
2017-Aug-15 17:59N 51°16' E 004°13'0 0.0
2017-Aug-15 17:29N 51°16' E 004°13'0 0.0
2017-Aug-15 16:59N 51°16' E 004°13'0 0.0
2017-Aug-15 16:29N 51°16' E 004°13'0 0.0
2017-Aug-15 15:59N 51°16' E 004°13'0 0.0
2017-Aug-15 15:29N 51°16' E 004°13'0 0.0
2017-Aug-15 14:59N 51°16' E 004°13'0 0.0
2017-Aug-15 14:29N 51°16' E 004°13'0 0.0
2017-Aug-15 13:59N 51°16' E 004°13'0 0.0
2017-Aug-15 13:29N 51°16' E 004°13'0 0.0
2017-Aug-15 12:59N 51°16' E 004°13'0 0.0
2017-Aug-15 12:29N 51°16' E 004°13'0 0.0
2017-Aug-15 11:59N 51°16' E 004°13'0 0.0
2017-Aug-15 11:29N 51°16' E 004°13'0 0.0
2017-Aug-15 10:59N 51°16' E 004°13'0 0.0
2017-Aug-15 10:29N 51°16' E 004°13'0 0.0
2017-Aug-15 09:56N 51°16' E 004°13'0 0.0
2017-Aug-15 09:29N 51°16' E 004°13'0 0.0
2017-Aug-15 08:59N 51°16' E 004°13'0 0.0
2017-Aug-15 08:29N 51°16' E 004°13'0 0.0
2017-Aug-15 07:59N 51°16' E 004°13'0 0.0
2017-Aug-15 07:29N 51°16' E 004°13'0 0.0
2017-Aug-15 06:59N 51°16' E 004°13'0 0.0
2017-Aug-15 06:29N 51°16' E 004°13'0 0.0
2017-Aug-15 05:59N 51°16' E 004°13'0 0.0
2017-Aug-15 05:29N 51°16' E 004°13'0 0.0
2017-Aug-15 04:59N 51°16' E 004°13'0 0.0
2017-Aug-15 04:29N 51°16' E 004°13'0 0.0
2017-Aug-15 03:59N 51°16' E 004°13'0 0.0
2017-Aug-15 03:29N 51°16' E 004°13'0 0.0
2017-Aug-15 02:59N 51°16' E 004°13'0 0.0
2017-Aug-15 02:29N 51°16' E 004°13'0 0.0
2017-Aug-15 01:59N 51°16' E 004°13'0 0.0
2017-Aug-15 01:29N 51°16' E 004°13'0 0.0
2017-Aug-15 00:59N 51°16' E 004°13'0 0.0
2017-Aug-15 00:29N 51°16' E 004°13'0 0.0
2017-Aug-14 23:59N 51°16' E 004°13'0 0.0
2017-Aug-14 23:29N 51°16' E 004°13'0 0.0
2017-Aug-14 22:59N 51°16' E 004°13'0 0.0
2017-Aug-14 22:29N 51°16' E 004°13'0 0.0
2017-Aug-14 21:59N 51°16' E 004°13'0 0.0
2017-Aug-14 21:29N 51°16' E 004°13'0 0.0
2017-Aug-14 20:59N 51°16' E 004°13'0 0.0
2017-Aug-14 20:29N 51°16' E 004°13'0 0.0
2017-Aug-14 19:59N 51°16' E 004°13'0 0.0
2017-Aug-14 19:29N 51°16' E 004°13'0 0.0
2017-Aug-14 18:56N 51°16' E 004°13'0 0.0
2017-Aug-14 18:29N 51°16' E 004°13'0 0.0
2017-Aug-14 17:59N 51°16' E 004°13'0 0.0
2017-Aug-14 17:29N 51°16' E 004°13'0 0.0
2017-Aug-14 16:59N 51°16' E 004°13'0 0.0
2017-Aug-14 16:29N 51°16' E 004°13'0 0.0
2017-Aug-14 16:00N 51°16' E 004°13'2 3.2
2017-Aug-14 15:30N 51°16' E 004°15'1 1.7
2017-Aug-14 15:01N 51°16' E 004°17'0 0.0
2017-Aug-14 14:30N 51°16' E 004°17'1 1.5
2017-Aug-14 14:00N 51°16' E 004°18'3 6.5
2017-Aug-14 13:30N 51°19' E 004°16'510.1
2017-Aug-14 13:00N 51°24' E 004°12'4 8.9
2017-Aug-14 12:30N 51°22' E 004°06'611.5
2017-Aug-14 12:00N 51°26' E 003°59'613.0
2017-Aug-14 11:30N 51°21' E 003°53'612.3
2017-Aug-14 11:00N 51°23' E 003°43'2 3.0
2017-Aug-14 10:27N 51°24' E 003°45'0 0.1
2017-Aug-14 09:57N 51°24' E 003°45'0 0.2
2017-Aug-14 09:30N 51°24' E 003°45'2 3.1
2017-Aug-14 09:00N 51°23' E 003°43'714.7
2017-Aug-14 08:30N 51°22' E 003°54'612.1
2017-Aug-14 08:00N 51°25' E 004°02'2 4.6
2017-Aug-14 07:30N 51°25' E 003°58'4 8.1
2017-Aug-14 07:00N 51°22' E 003°55'714.3
2017-Aug-14 06:30N 51°23' E 003°44'611.7
2017-Aug-14 06:00N 51°26' E 003°36'4 8.7
2017-Aug-14 05:30N 51°29' E 003°30'714.6
2017-Aug-14 05:01N 51°35' E 003°24'816.3
2017-Aug-14 04:30N 51°42' E 003°17'5 9.5
2017-Aug-14 03:59N 51°47' E 003°16'613.3
2017-Aug-14 03:31N 51°53' E 003°18'816.6
2017-Aug-14 03:00N 52°01' E 003°20'1121.1
2017-Aug-14 02:30N 52°12' E 003°22'611.6
2017-Aug-14 02:01N 52°17' E 003°24'4816.7
2017-Aug-13 23:09N 52°59' E 004°00'516.9
2017-Aug-13 22:51N 53°03' E 004°07'616.7
2017-Aug-13 22:30N 53°07' E 004°14'815.9
2017-Aug-13 22:00N 53°12' E 004°24'1115.5
2017-Aug-13 21:19N 53°22' E 004°31'615.6
2017-Aug-13 20:58N 53°27' E 004°34'28616.7
2017-Aug-13 03:48N 57°31' E 008°58'515.1
2017-Aug-13 03:29N 57°34' E 009°05'815.3
2017-Aug-13 02:59N 57°39' E 009°16'714.8
2017-Aug-13 02:29N 57°43' E 009°28'714.9
2017-Aug-13 02:01N 57°44' E 009°41'1315.1
2017-Aug-13 01:10N 57°47' E 010°04'315.7
2017-Aug-13 00:59N 57°49' E 010°09'715.2
2017-Aug-13 00:30N 57°50' E 010°22'815.4
2017-Aug-13 00:00N 57°50' E 010°37'815.5
2017-Aug-12 23:30N 57°51' E 010°52'815.9
2017-Aug-12 23:00N 57°51' E 011°06'816.1
2017-Aug-12 22:31N 57°51' E 011°21'713.1
2017-Aug-12 22:00N 57°54' E 011°32'611.2
2017-Aug-12 21:30N 57°57' E 011°42'4 7.9
2017-Aug-12 21:00N 58°01' E 011°42'0 0.1
2017-Aug-12 20:29N 58°01' E 011°42'0 0.0
2017-Aug-12 19:59N 58°01' E 011°42'0 0.0
2017-Aug-12 19:29N 58°01' E 011°42'0 0.0
2017-Aug-12 18:59N 58°01' E 011°42'0 0.0
2017-Aug-12 18:29N 58°01' E 011°42'0 0.0
2017-Aug-12 17:59N 58°01' E 011°42'0 0.0
2017-Aug-12 17:29N 58°01' E 011°42'0 0.0
2017-Aug-12 16:59N 58°01' E 011°42'0 0.0
2017-Aug-12 16:29N 58°01' E 011°42'0 0.0
2017-Aug-12 15:59N 58°01' E 011°42'0 0.0
2017-Aug-12 15:29N 58°01' E 011°42'0 0.0
2017-Aug-12 14:59N 58°01' E 011°42'0 0.0
2017-Aug-12 14:29N 58°01' E 011°42'0 0.0
2017-Aug-12 13:59N 58°01' E 011°42'0 0.0
2017-Aug-12 13:29N 58°01' E 011°42'0 0.0
2017-Aug-12 12:59N 58°01' E 011°42'0 0.0
2017-Aug-12 12:29N 58°01' E 011°42'0 0.0
2017-Aug-12 12:01N 58°01' E 011°42'0 0.1
2017-Aug-12 11:30N 58°01' E 011°42'3 6.5
2017-Aug-12 11:01N 57°57' E 011°42'510.8
2017-Aug-12 10:30N 57°55' E 011°34'713.2
2017-Aug-12 10:00N 57°51' E 011°23'714.1
2017-Aug-12 09:31N 57°50' E 011°11'917.5
2017-Aug-12 09:00N 57°51' E 010°54'817.0
2017-Aug-12 08:30N 57°51' E 010°38'816.9
2017-Aug-12 08:00N 57°50' E 010°22'1417.0
2017-Aug-12 07:12N 57°48' E 009°57'316.8
2017-Aug-12 07:00N 57°47' E 009°51'916.9
2017-Aug-12 06:29N 57°46' E 009°34'1017.2
2017-Aug-12 05:55N 57°44' E 009°17'717.0
2017-Aug-12 05:30N 57°40' E 009°07'816.9
2017-Aug-12 05:00N 57°34' E 008°54'916.9
2017-Aug-12 04:29N 57°28' E 008°42'817.0
2017-Aug-12 03:59N 57°23' E 008°30'816.9
2017-Aug-12 03:30N 57°17' E 008°19'916.8
2017-Aug-12 02:59N 57°12' E 008°07'7316.3
2017-Aug-11 22:31N 56°02' E 007°28'016.5
2017-Aug-11 22:30N 56°02' E 007°28'816.3
2017-Aug-11 22:00N 55°54' E 007°26'816.4
2017-Aug-11 21:30N 55°46' E 007°22'816.4
2017-Aug-11 21:00N 55°38' E 007°18'713.4
2017-Aug-11 20:30N 55°32' E 007°22'816.2
2017-Aug-11 20:01N 55°28' E 007°35'816.5
2017-Aug-11 19:30N 55°23' E 007°47'816.2
2017-Aug-11 19:00N 55°24' E 008°02'713.2
2017-Aug-11 18:30N 55°25' E 008°13'612.1
2017-Aug-11 18:00N 55°29' E 008°22'3 6.6
2017-Aug-11 17:30N 55°28' E 008°27'0 0.0
2017-Aug-11 16:58N 55°28' E 008°27'0 0.0
2017-Aug-11 16:25N 55°28' E 008°27'0 0.0
2017-Aug-11 15:58N 55°28' E 008°27'0 0.0
2017-Aug-11 15:16N 55°28' E 008°27'0 0.0
2017-Aug-11 14:58N 55°28' E 008°27'0 0.0
2017-Aug-11 13:58N 55°28' E 008°27'0 0.0
2017-Aug-11 13:30N 55°28' E 008°27'0 0.0
2017-Aug-11 13:00N 55°28' E 008°27'0 0.0
2017-Aug-11 12:31N 55°28' E 008°27'0 0.0
2017-Aug-11 12:00N 55°28' E 008°27'0 0.0
2017-Aug-11 11:30N 55°28' E 008°27'0 0.0
2017-Aug-11 11:01N 55°28' E 008°27'0 0.0
2017-Aug-11 10:30N 55°28' E 008°27'0 0.0
2017-Aug-11 10:00N 55°28' E 008°27'1 2.4
2017-Aug-11 09:31N 55°28' E 008°25'4 7.0
2017-Aug-11 09:00N 55°27' E 008°19'611.9
2017-Aug-11 08:30N 55°24' E 008°10'611.5
2017-Aug-11 08:01N 55°20' E 008°03'816.4
2017-Aug-11 07:31N 55°15' E 007°51'816.9
2017-Aug-11 07:00N 55°10' E 007°40'816.7
2017-Aug-11 06:31N 55°05' E 007°28'816.5
2017-Aug-11 06:01N 54°60' E 007°17'816.6
2017-Aug-11 05:31N 54°56' E 007°04'816.5
2017-Aug-11 05:01N 54°52' E 006°51'816.5
2017-Aug-11 04:30N 54°48' E 006°39'5116.5
2017-Aug-11 01:25N 54°23' E 005°22'716.5
2017-Aug-11 01:00N 54°20' E 005°12'816.6
2017-Aug-11 00:30N 54°15' E 005°00'816.7
2017-Aug-11 00:00N 54°10' E 004°49'17017.0
2017-Aug-10 14:02N 51°42' E 002°31'118.4
2017-Aug-10 13:58N 51°41' E 002°30'918.0
2017-Aug-10 13:29N 51°35' E 002°21'817.7
2017-Aug-10 13:00N 51°28' E 002°12'917.3
2017-Aug-10 12:30N 51°22' E 002°02'817.0
2017-Aug-10 12:01N 51°16' E 001°53'816.6
2017-Aug-10 11:31N 51°10' E 001°44'815.9
2017-Aug-10 11:01N 51°03' E 001°37'815.5
2017-Aug-10 10:31N 50°57' E 001°29'815.1
2017-Aug-10 10:00N 50°50' E 001°25'1015.5
2017-Aug-10 09:22N 50°41' E 001°19'1016.6
2017-Aug-10 08:47N 50°35' E 001°07'517.0
2017-Aug-10 08:29N 50°32' E 001°00'816.4
2017-Aug-10 08:00N 50°29' E 000°49'1215.6
2017-Aug-10 07:15N 50°26' E 000°31'415.3
2017-Aug-10 07:00N 50°25' E 000°25'815.2
2017-Aug-10 06:30N 50°23' E 000°14'815.1
2017-Aug-10 05:59N 50°20' E 000°02'715.0
2017-Aug-10 05:30N 50°19' W 000°09'714.8
2017-Aug-10 05:01N 50°17' W 000°20'714.5
2017-Aug-10 04:30N 50°15' W 000°31'1014.2
2017-Aug-10 03:49N 50°12' W 000°46'413.9
2017-Aug-10 03:30N 50°11' W 000°52'713.6
2017-Aug-10 03:00N 50°10' W 001°03'713.6
2017-Aug-10 02:30N 50°08' W 001°13'713.8
2017-Aug-10 02:00N 50°06' W 001°23'714.2
2017-Aug-10 01:30N 50°04' W 001°34'714.7
2017-Aug-10 01:00N 50°02' W 001°45'815.4
2017-Aug-10 00:30N 49°60' W 001°56'816.4
2017-Aug-10 00:00N 49°57' W 002°09'917.3
2017-Aug-09 23:30N 49°55' W 002°22'917.9
2017-Aug-09 23:00N 49°52' W 002°35'917.8
2017-Aug-09 22:30N 49°49' W 002°48'918.1
2017-Aug-09 22:00N 49°50' W 003°02'918.3
2017-Aug-09 21:30N 49°50' W 003°16'918.5
2017-Aug-09 21:00N 49°50' W 003°30'918.4
2017-Aug-09 20:30N 49°50' W 003°44'918.5
2017-Aug-09 20:00N 49°51' W 003°59'918.6
2017-Aug-09 19:30N 49°51' W 004°13'918.7
2017-Aug-09 19:00N 49°51' W 004°28'918.6
2017-Aug-09 18:30N 49°51' W 004°42'1818.6
2017-Aug-09 17:33N 49°51' W 005°10'418.7
2017-Aug-09 17:20N 49°51' W 005°16'  
Track history (hours):
 
Tides and Currents Weather Stations Pressure Air Temp Water Temp Dewpoint Dewpoint Depression Visibility Wind Speed Wind Dir Waves Ship Positions

Grande Europa

Last reported at 2017-Aug-19 16:30 UTC. Time now 2017-Aug-19 16:45 UTC.
Position N 36°26' W 008°44'.

Length 183 m; draft 9.2 m.

Type: Cargo ship. MMSI: 247206000.

Date/timePositionNaut miles runAvg speedWind from/ knotsBaromVisibWave heightAir tempDewpointWater temp
2017-Aug-19 16:30N 36°26' W 008°44'917.6
2017-Aug-19 16:00N 36°28' W 008°54'917.8
2017-Aug-19 15:30N 36°31' W 009°05'918.0
2017-Aug-19 15:00N 36°33' W 009°16'1818.0
2017-Aug-19 14:00N 36°47' W 009°31'918.2
2017-Aug-19 13:30N 36°55' W 009°34'918.1
2017-Aug-19 13:01N 37°04' W 009°37'917.8
2017-Aug-19 12:31N 37°13' W 009°40'917.8
2017-Aug-19 12:00N 37°21' W 009°43'917.6
2017-Aug-19 11:30N 37°30' W 009°46'917.6
2017-Aug-19 11:00N 37°38' W 009°48'917.7
2017-Aug-19 10:31N 37°47' W 009°51'918.1
2017-Aug-19 10:00N 37°56' W 009°53'917.7
2017-Aug-19 09:30N 38°04' W 009°55'917.6
2017-Aug-19 09:00N 38°13' W 009°58'917.4
2017-Aug-19 08:30N 38°22' W 010°00'917.6
2017-Aug-19 08:00N 38°30' W 010°03'917.9
2017-Aug-19 07:30N 38°39' W 010°05'917.6
2017-Aug-19 07:00N 38°48' W 010°06'917.8
2017-Aug-19 06:31N 38°57' W 010°07'918.1
2017-Aug-19 06:00N 39°06' W 010°07'917.7
2017-Aug-19 05:30N 39°14' W 010°08'917.9
2017-Aug-19 05:01N 39°23' W 010°08'917.7
2017-Aug-19 04:31N 39°32' W 010°08'917.9
2017-Aug-19 04:01N 39°41' W 010°09'917.7
2017-Aug-19 03:31N 39°50' W 010°09'1817.9
2017-Aug-19 02:30N 40°08' W 010°08'54916.9
2017-Aug-17 18:00N 48°46' W 005°54'1117.7
2017-Aug-17 17:24N 48°54' W 005°44'717.7
2017-Aug-17 17:00N 48°58' W 005°35'917.7
2017-Aug-17 16:30N 49°03' W 005°24'917.4
2017-Aug-17 15:57N 49°08' W 005°12'2216.7
2017-Aug-17 14:38N 49°20' W 004°43'216.1
2017-Aug-17 14:30N 49°21' W 004°41'816.1
2017-Aug-17 14:00N 49°25' W 004°30'815.8
2017-Aug-17 13:28N 49°29' W 004°18'1115.8
2017-Aug-17 12:47N 49°35' W 004°04'515.8
2017-Aug-17 12:29N 49°37' W 003°58'816.1
2017-Aug-17 12:00N 49°41' W 003°47'816.3
2017-Aug-17 11:30N 49°45' W 003°36'816.8
2017-Aug-17 11:00N 49°49' W 003°25'917.2
2017-Aug-17 10:30N 49°53' W 003°13'917.5
2017-Aug-17 10:00N 49°57' W 003°01'917.9
2017-Aug-17 09:30N 50°01' W 002°48'2517.9
2017-Aug-17 08:06N 50°10' W 002°12'217.5
2017-Aug-17 08:00N 50°11' W 002°09'917.2
2017-Aug-17 07:30N 50°15' W 001°57'817.2
2017-Aug-17 07:00N 50°19' W 001°46'816.8
2017-Aug-17 06:31N 50°23' W 001°34'816.2
2017-Aug-17 06:00N 50°26' W 001°23'815.7
2017-Aug-17 05:30N 50°30' W 001°12'815.2
2017-Aug-17 05:00N 50°34' W 001°01'714.4
2017-Aug-17 04:31N 50°41' W 000°58'510.2
2017-Aug-17 04:01N 50°44' W 001°04'815.9
2017-Aug-17 03:31N 50°46' W 001°16'5 9.1
2017-Aug-17 03:00N 50°50' W 001°20'3 5.5
2017-Aug-17 02:30N 50°52' W 001°23'3 5.5
2017-Aug-17 01:58N 50°54' W 001°26'1 1.5
2017-Aug-17 01:28N 50°54' W 001°25'0 0.0
2017-Aug-17 00:55N 50°54' W 001°25'0 0.0
2017-Aug-17 00:25N 50°54' W 001°25'0 0.0
2017-Aug-16 23:55N 50°54' W 001°25'0 0.0
2017-Aug-16 23:28N 50°54' W 001°25'0 0.0
2017-Aug-16 22:55N 50°54' W 001°25'0 0.0
2017-Aug-16 22:25N 50°54' W 001°25'0 0.0
2017-Aug-16 21:58N 50°54' W 001°25'0 0.0
2017-Aug-16 21:28N 50°54' W 001°25'0 0.2
2017-Aug-16 20:58N 50°54' W 001°25'0 0.2
2017-Aug-16 20:25N 50°54' W 001°25'0 0.0
2017-Aug-16 19:58N 50°54' W 001°25'0 0.0
2017-Aug-16 19:28N 50°54' W 001°25'0 0.0
2017-Aug-16 18:58N 50°54' W 001°25'0 0.1
2017-Aug-16 18:28N 50°54' W 001°25'0 0.1
2017-Aug-16 17:55N 50°54' W 001°25'0 0.0
2017-Aug-16 17:28N 50°54' W 001°25'0 0.0
2017-Aug-16 16:58N 50°54' W 001°25'0 0.0
2017-Aug-16 16:28N 50°54' W 001°25'0 0.0
2017-Aug-16 16:00N 50°54' W 001°25'1 2.6
2017-Aug-16 15:31N 50°53' W 001°24'4 8.2
2017-Aug-16 15:00N 50°50' W 001°19'4 7.8
2017-Aug-16 14:31N 50°47' W 001°17'714.2
2017-Aug-16 14:00N 50°45' W 001°06'714.5
2017-Aug-16 13:31N 50°41' W 000°57'611.5
2017-Aug-16 13:00N 50°37' W 000°50'612.0
2017-Aug-16 12:30N 50°35' W 000°41'611.7
2017-Aug-16 12:00N 50°34' W 000°32'713.7
2017-Aug-16 11:30N 50°33' W 000°21'714.1
2017-Aug-16 11:00N 50°32' W 000°10'816.0
2017-Aug-16 10:31N 50°32' E 000°02'816.1
2017-Aug-16 10:00N 50°34' E 000°14'815.9
2017-Aug-16 09:31N 50°37' E 000°26'917.0
2017-Aug-16 09:00N 50°40' E 000°39'917.3
2017-Aug-16 08:31N 50°45' E 000°50'917.0
2017-Aug-16 08:00N 50°50' E 001°01'816.6
2017-Aug-16 07:31N 50°55' E 001°11'815.8
2017-Aug-16 07:00N 51°00' E 001°21'815.2
2017-Aug-16 06:31N 51°05' E 001°30'714.8
2017-Aug-16 06:01N 51°10' E 001°39'714.9
2017-Aug-16 05:31N 51°15' E 001°47'815.5
2017-Aug-16 05:00N 51°21' E 001°55'713.1
2017-Aug-16 04:31N 51°24' E 002°04'815.8
2017-Aug-16 04:01N 51°21' E 002°16'815.9
2017-Aug-16 03:31N 51°23' E 002°28'816.3
2017-Aug-16 03:01N 51°23' E 002°41'713.3
2017-Aug-16 02:30N 51°22' E 002°52'816.0
2017-Aug-16 02:00N 51°24' E 003°04'816.0
2017-Aug-16 01:30N 51°25' E 003°17'816.5
2017-Aug-16 01:00N 51°25' E 003°30'5 9.9
2017-Aug-16 00:30N 51°26' E 003°38'714.9
2017-Aug-16 00:01N 51°21' E 003°47'815.1
2017-Aug-15 23:31N 51°25' E 003°58'611.7
2017-Aug-15 23:01N 51°22' E 004°06'611.4
2017-Aug-15 22:30N 51°21' E 004°15'5 9.5
2017-Aug-15 22:00N 51°17' E 004°19'2 4.2
2017-Aug-15 21:30N 51°16' E 004°17'0 0.2
2017-Aug-15 21:01N 51°16' E 004°17'2 4.6
2017-Aug-15 20:30N 51°16' E 004°13'0 0.6
2017-Aug-15 19:59N 51°16' E 004°13'0 0.0
2017-Aug-15 19:29N 51°16' E 004°13'0 0.0
2017-Aug-15 18:59N 51°16' E 004°13'0 0.0
2017-Aug-15 18:29N 51°16' E 004°13'0 0.0
2017-Aug-15 17:59N 51°16' E 004°13'0 0.0
2017-Aug-15 17:29N 51°16' E 004°13'0 0.0
2017-Aug-15 16:59N 51°16' E 004°13'0 0.0
2017-Aug-15 16:29N 51°16' E 004°13'0 0.0
2017-Aug-15 15:59N 51°16' E 004°13'0 0.0
2017-Aug-15 15:29N 51°16' E 004°13'0 0.0
2017-Aug-15 14:59N 51°16' E 004°13'0 0.0
2017-Aug-15 14:29N 51°16' E 004°13'0 0.0
2017-Aug-15 13:59N 51°16' E 004°13'0 0.0
2017-Aug-15 13:29N 51°16' E 004°13'0 0.0
2017-Aug-15 12:59N 51°16' E 004°13'0 0.0
2017-Aug-15 12:29N 51°16' E 004°13'0 0.0
2017-Aug-15 11:59N 51°16' E 004°13'0 0.0
2017-Aug-15 11:29N 51°16' E 004°13'0 0.0
2017-Aug-15 10:59N 51°16' E 004°13'0 0.0
2017-Aug-15 10:29N 51°16' E 004°13'0 0.0
2017-Aug-15 09:56N 51°16' E 004°13'0 0.0
2017-Aug-15 09:29N 51°16' E 004°13'0 0.0
2017-Aug-15 08:59N 51°16' E 004°13'0 0.0
2017-Aug-15 08:29N 51°16' E 004°13'0 0.0
2017-Aug-15 07:59N 51°16' E 004°13'0 0.0
2017-Aug-15 07:29N 51°16' E 004°13'0 0.0
2017-Aug-15 06:59N 51°16' E 004°13'0 0.0
2017-Aug-15 06:29N 51°16' E 004°13'0 0.0
2017-Aug-15 05:59N 51°16' E 004°13'0 0.0
2017-Aug-15 05:29N 51°16' E 004°13'0 0.0
2017-Aug-15 04:59N 51°16' E 004°13'0 0.0
2017-Aug-15 04:29N 51°16' E 004°13'0 0.0
2017-Aug-15 03:59N 51°16' E 004°13'0 0.0
2017-Aug-15 03:29N 51°16' E 004°13'0 0.0
2017-Aug-15 02:59N 51°16' E 004°13'0 0.0
2017-Aug-15 02:29N 51°16' E 004°13'0 0.0
2017-Aug-15 01:59N 51°16' E 004°13'0 0.0
2017-Aug-15 01:29N 51°16' E 004°13'0 0.0
2017-Aug-15 00:59N 51°16' E 004°13'0 0.0
2017-Aug-15 00:29N 51°16' E 004°13'0 0.0
2017-Aug-14 23:59N 51°16' E 004°13'0 0.0
2017-Aug-14 23:29N 51°16' E 004°13'0 0.0
2017-Aug-14 22:59N 51°16' E 004°13'0 0.0
2017-Aug-14 22:29N 51°16' E 004°13'0 0.0
2017-Aug-14 21:59N 51°16' E 004°13'0 0.0
2017-Aug-14 21:29N 51°16' E 004°13'0 0.0
2017-Aug-14 20:59N 51°16' E 004°13'0 0.0
2017-Aug-14 20:29N 51°16' E 004°13'0 0.0
2017-Aug-14 19:59N 51°16' E 004°13'0 0.0
2017-Aug-14 19:29N 51°16' E 004°13'0 0.0
2017-Aug-14 18:56N 51°16' E 004°13'0 0.0
2017-Aug-14 18:29N 51°16' E 004°13'0 0.0
2017-Aug-14 17:59N 51°16' E 004°13'0 0.0
2017-Aug-14 17:29N 51°16' E 004°13'0 0.0
2017-Aug-14 16:59N 51°16' E 004°13'0 0.0
2017-Aug-14 16:29N 51°16' E 004°13'0 0.0
2017-Aug-14 16:00N 51°16' E 004°13'2 3.2
2017-Aug-14 15:30N 51°16' E 004°15'1 1.7
2017-Aug-14 15:01N 51°16' E 004°17'0 0.0
2017-Aug-14 14:30N 51°16' E 004°17'1 1.5
2017-Aug-14 14:00N 51°16' E 004°18'3 6.5
2017-Aug-14 13:30N 51°19' E 004°16'510.1
2017-Aug-14 13:00N 51°24' E 004°12'4 8.9
2017-Aug-14 12:30N 51°22' E 004°06'611.5
2017-Aug-14 12:00N 51°26' E 003°59'613.0
2017-Aug-14 11:30N 51°21' E 003°53'612.3
2017-Aug-14 11:00N 51°23' E 003°43'2 3.0
2017-Aug-14 10:27N 51°24' E 003°45'0 0.1
2017-Aug-14 09:57N 51°24' E 003°45'0 0.2
2017-Aug-14 09:30N 51°24' E 003°45'2 3.1
2017-Aug-14 09:00N 51°23' E 003°43'714.7
2017-Aug-14 08:30N 51°22' E 003°54'612.1
2017-Aug-14 08:00N 51°25' E 004°02'2 4.6
2017-Aug-14 07:30N 51°25' E 003°58'4 8.1
2017-Aug-14 07:00N 51°22' E 003°55'714.3
2017-Aug-14 06:30N 51°23' E 003°44'611.7
2017-Aug-14 06:00N 51°26' E 003°36'4 8.7
2017-Aug-14 05:30N 51°29' E 003°30'714.6
2017-Aug-14 05:01N 51°35' E 003°24'816.3
2017-Aug-14 04:30N 51°42' E 003°17'5 9.5
2017-Aug-14 03:59N 51°47' E 003°16'613.3
2017-Aug-14 03:31N 51°53' E 003°18'816.6
2017-Aug-14 03:00N 52°01' E 003°20'1121.1
2017-Aug-14 02:30N 52°12' E 003°22'611.6
2017-Aug-14 02:01N 52°17' E 003°24'4816.7
2017-Aug-13 23:09N 52°59' E 004°00'516.9
2017-Aug-13 22:51N 53°03' E 004°07'616.7
2017-Aug-13 22:30N 53°07' E 004°14'815.9
2017-Aug-13 22:00N 53°12' E 004°24'1115.5
2017-Aug-13 21:19N 53°22' E 004°31'615.6
2017-Aug-13 20:58N 53°27' E 004°34'28616.7
2017-Aug-13 03:48N 57°31' E 008°58'515.1
2017-Aug-13 03:29N 57°34' E 009°05'815.3
2017-Aug-13 02:59N 57°39' E 009°16'714.8
2017-Aug-13 02:29N 57°43' E 009°28'714.9
2017-Aug-13 02:01N 57°44' E 009°41'1315.1
2017-Aug-13 01:10N 57°47' E 010°04'315.7
2017-Aug-13 00:59N 57°49' E 010°09'715.2
2017-Aug-13 00:30N 57°50' E 010°22'815.4
2017-Aug-13 00:00N 57°50' E 010°37'815.5
2017-Aug-12 23:30N 57°51' E 010°52'815.9
2017-Aug-12 23:00N 57°51' E 011°06'816.1
2017-Aug-12 22:31N 57°51' E 011°21'713.1
2017-Aug-12 22:00N 57°54' E 011°32'611.2
2017-Aug-12 21:30N 57°57' E 011°42'4 7.9
2017-Aug-12 21:00N 58°01' E 011°42'0 0.1
2017-Aug-12 20:29N 58°01' E 011°42'0 0.0
2017-Aug-12 19:59N 58°01' E 011°42'0 0.0
2017-Aug-12 19:29N 58°01' E 011°42'0 0.0
2017-Aug-12 18:59N 58°01' E 011°42'0 0.0
2017-Aug-12 18:29N 58°01' E 011°42'0 0.0
2017-Aug-12 17:59N 58°01' E 011°42'0 0.0
2017-Aug-12 17:29N 58°01' E 011°42'0 0.0
2017-Aug-12 16:59N 58°01' E 011°42'0 0.0
2017-Aug-12 16:29N 58°01' E 011°42'0 0.0
2017-Aug-12 15:59N 58°01' E 011°42'0 0.0
2017-Aug-12 15:29N 58°01' E 011°42'0 0.0
2017-Aug-12 14:59N 58°01' E 011°42'0 0.0
2017-Aug-12 14:29N 58°01' E 011°42'0 0.0
2017-Aug-12 13:59N 58°01' E 011°42'0 0.0
2017-Aug-12 13:29N 58°01' E 011°42'0 0.0
2017-Aug-12 12:59N 58°01' E 011°42'0 0.0
2017-Aug-12 12:29N 58°01' E 011°42'0 0.0
2017-Aug-12 12:01N 58°01' E 011°42'0 0.1
2017-Aug-12 11:30N 58°01' E 011°42'3 6.5
2017-Aug-12 11:01N 57°57' E 011°42'510.8
2017-Aug-12 10:30N 57°55' E 011°34'713.2
2017-Aug-12 10:00N 57°51' E 011°23'714.1
2017-Aug-12 09:31N 57°50' E 011°11'917.5
2017-Aug-12 09:00N 57°51' E 010°54'817.0
2017-Aug-12 08:30N 57°51' E 010°38'816.9
2017-Aug-12 08:00N 57°50' E 010°22'1417.0
2017-Aug-12 07:12N 57°48' E 009°57'316.8
2017-Aug-12 07:00N 57°47' E 009°51'916.9
2017-Aug-12 06:29N 57°46' E 009°34'1017.2
2017-Aug-12 05:55N 57°44' E 009°17'717.0
2017-Aug-12 05:30N 57°40' E 009°07'816.9
2017-Aug-12 05:00N 57°34' E 008°54'916.9
2017-Aug-12 04:29N 57°28' E 008°42'817.0
2017-Aug-12 03:59N 57°23' E 008°30'816.9
2017-Aug-12 03:30N 57°17' E 008°19'916.8
2017-Aug-12 02:59N 57°12' E 008°07'7316.3
2017-Aug-11 22:31N 56°02' E 007°28'016.5
2017-Aug-11 22:30N 56°02' E 007°28'816.3
2017-Aug-11 22:00N 55°54' E 007°26'816.4
2017-Aug-11 21:30N 55°46' E 007°22'816.4
2017-Aug-11 21:00N 55°38' E 007°18'713.4
2017-Aug-11 20:30N 55°32' E 007°22'816.2
2017-Aug-11 20:01N 55°28' E 007°35'816.5
2017-Aug-11 19:30N 55°23' E 007°47'816.2
2017-Aug-11 19:00N 55°24' E 008°02'713.2
2017-Aug-11 18:30N 55°25' E 008°13'612.1
2017-Aug-11 18:00N 55°29' E 008°22'3 6.6
2017-Aug-11 17:30N 55°28' E 008°27'0 0.0
2017-Aug-11 16:58N 55°28' E 008°27'0 0.0
2017-Aug-11 16:25N 55°28' E 008°27'0 0.0
2017-Aug-11 15:58N 55°28' E 008°27'0 0.0
2017-Aug-11 15:16N 55°28' E 008°27'0 0.0
2017-Aug-11 14:58N 55°28' E 008°27'0 0.0
2017-Aug-11 13:58N 55°28' E 008°27'0 0.0
2017-Aug-11 13:30N 55°28' E 008°27'0 0.0
2017-Aug-11 13:00N 55°28' E 008°27'0 0.0
2017-Aug-11 12:31N 55°28' E 008°27'0 0.0
2017-Aug-11 12:00N 55°28' E 008°27'0 0.0
2017-Aug-11 11:30N 55°28' E 008°27'0 0.0
2017-Aug-11 11:01N 55°28' E 008°27'0 0.0
2017-Aug-11 10:30N 55°28' E 008°27'0 0.0
2017-Aug-11 10:00N 55°28' E 008°27'1 2.4
2017-Aug-11 09:31N 55°28' E 008°25'4 7.0
2017-Aug-11 09:00N 55°27' E 008°19'611.9
2017-Aug-11 08:30N 55°24' E 008°10'611.5
2017-Aug-11 08:01N 55°20' E 008°03'816.4
2017-Aug-11 07:31N 55°15' E 007°51'816.9
2017-Aug-11 07:00N 55°10' E 007°40'816.7
2017-Aug-11 06:31N 55°05' E 007°28'816.5
2017-Aug-11 06:01N 54°60' E 007°17'816.6
2017-Aug-11 05:31N 54°56' E 007°04'816.5
2017-Aug-11 05:01N 54°52' E 006°51'816.5
2017-Aug-11 04:30N 54°48' E 006°39'5116.5
2017-Aug-11 01:25N 54°23' E 005°22'716.5
2017-Aug-11 01:00N 54°20' E 005°12'816.6
2017-Aug-11 00:30N 54°15' E 005°00'816.7
2017-Aug-11 00:00N 54°10' E 004°49'17017.0
2017-Aug-10 14:02N 51°42' E 002°31'118.4
2017-Aug-10 13:58N 51°41' E 002°30'918.0
2017-Aug-10 13:29N 51°35' E 002°21'817.7
2017-Aug-10 13:00N 51°28' E 002°12'917.3
2017-Aug-10 12:30N 51°22' E 002°02'817.0
2017-Aug-10 12:01N 51°16' E 001°53'816.6
2017-Aug-10 11:31N 51°10' E 001°44'815.9
2017-Aug-10 11:01N 51°03' E 001°37'815.5
2017-Aug-10 10:31N 50°57' E 001°29'815.1
2017-Aug-10 10:00N 50°50' E 001°25'1015.5
2017-Aug-10 09:22N 50°41' E 001°19'1016.6
2017-Aug-10 08:47N 50°35' E 001°07'517.0
2017-Aug-10 08:29N 50°32' E 001°00'816.4
2017-Aug-10 08:00N 50°29' E 000°49'1215.6
2017-Aug-10 07:15N 50°26' E 000°31'415.3
2017-Aug-10 07:00N 50°25' E 000°25'815.2
2017-Aug-10 06:30N 50°23' E 000°14'815.1
2017-Aug-10 05:59N 50°20' E 000°02'715.0
2017-Aug-10 05:30N 50°19' W 000°09'714.8
2017-Aug-10 05:01N 50°17' W 000°20'714.5
2017-Aug-10 04:30N 50°15' W 000°31'1014.2
2017-Aug-10 03:49N 50°12' W 000°46'413.9
2017-Aug-10 03:30N 50°11' W 000°52'713.6
2017-Aug-10 03:00N 50°10' W 001°03'713.6
2017-Aug-10 02:30N 50°08' W 001°13'713.8
2017-Aug-10 02:00N 50°06' W 001°23'714.2
2017-Aug-10 01:30N 50°04' W 001°34'714.7
2017-Aug-10 01:00N 50°02' W 001°45'815.4
2017-Aug-10 00:30N 49°60' W 001°56'816.4
2017-Aug-10 00:00N 49°57' W 002°09'917.3
2017-Aug-09 23:30N 49°55' W 002°22'917.9
2017-Aug-09 23:00N 49°52' W 002°35'917.8
2017-Aug-09 22:30N 49°49' W 002°48'918.1
2017-Aug-09 22:00N 49°50' W 003°02'918.3
2017-Aug-09 21:30N 49°50' W 003°16'918.5
2017-Aug-09 21:00N 49°50' W 003°30'918.4
2017-Aug-09 20:30N 49°50' W 003°44'918.5
2017-Aug-09 20:00N 49°51' W 003°59'918.6
2017-Aug-09 19:30N 49°51' W 004°13'918.7
2017-Aug-09 19:00N 49°51' W 004°28'918.6
2017-Aug-09 18:30N 49°51' W 004°42'1818.6
2017-Aug-09 17:33N 49°51' W 005°10'418.7
2017-Aug-09 17:20N 49°51' W 005°16'  

Dump ship's entire track history